sensor_id;sensor_type;location;lat;lon;timestamp;temperature;humidity
22842;DHT22;11587;47.064;15.444;2022-10-04T13:32:07;27.90;73.30
22842;DHT22;11587;47.064;15.444;2022-10-04T13:37:59;29.40;69.50
22842;DHT22;11587;47.064;15.444;2022-10-04T13:41:02;28.90;75.40
22842;DHT22;11587;47.064;15.444;2022-10-04T13:46:46;28.60;65.90
22842;DHT22;11587;47.064;15.444;2022-10-04T13:56:52;27.40;74.40
22842;DHT22;11587;47.064;15.444;2022-10-04T13:59:42;27.00;75.30
22842;DHT22;11587;47.064;15.444;2022-10-04T14:14:08;25.10;70.20
22842;DHT22;11587;47.064;15.444;2022-10-04T14:33:21;21.20;87.30
22842;DHT22;11587;47.064;15.444;2022-10-04T14:39:20;20.30;90.30
22842;DHT22;11587;47.064;15.444;2022-10-04T14:42:17;20.30;90.90
22842;DHT22;11587;47.064;15.444;2022-10-04T14:50:58;20.00;90.00
22842;DHT22;11587;47.064;15.444;2022-10-04T14:53:34;20.00;90.60
22842;DHT22;11587;47.064;15.444;2022-10-04T15:02:10;19.60;93.50
22842;DHT22;11587;47.064;15.444;2022-10-04T15:07:47;19.20;94.20
22842;DHT22;11587;47.064;15.444;2022-10-04T15:10:30;19.10;91.80
22842;DHT22;11587;47.064;15.444;2022-10-04T15:12:59;19.00;91.50
22842;DHT22;11587;47.064;15.444;2022-10-04T15:24:30;18.70;95.50
22842;DHT22;11587;47.064;15.444;2022-10-04T15:27:02;18.50;95.00
22842;DHT22;11587;47.064;15.444;2022-10-04T15:30:18;18.50;93.70
22842;DHT22;11587;47.064;15.444;2022-10-04T15:32:55;18.70;94.50
22842;DHT22;11587;47.064;15.444;2022-10-04T15:36:26;18.70;96.10
22842;DHT22;11587;47.064;15.444;2022-10-04T15:55:02;18.00;95.10
22842;DHT22;11587;47.064;15.444;2022-10-04T16:01:04;17.40;99.00
22842;DHT22;11587;47.064;15.444;2022-10-04T16:03:44;17.70;96.00
22842;DHT22;11587;47.064;15.444;2022-10-04T16:14:47;17.00;99.90
22842;DHT22;11587;47.064;15.444;2022-10-04T16:22:34;16.50;99.70
22842;DHT22;11587;47.064;15.444;2022-10-04T16:28:01;16.30;99.90
22842;DHT22;11587;47.064;15.444;2022-10-04T16:31:16;16.20;99.90
22842;DHT22;11587;47.064;15.444;2022-10-04T16:34:07;16.20;99.90
22842;DHT22;11587;47.064;15.444;2022-10-04T16:36:58;16.00;99.90
22842;DHT22;11587;47.064;15.444;2022-10-04T16:47:36;15.80;99.90
22842;DHT22;11587;47.064;15.444;2022-10-04T16:50:09;15.70;99.90
22842;DHT22;11587;47.064;15.444;2022-10-04T16:55:45;15.60;99.90
22842;DHT22;11587;47.064;15.444;2022-10-04T17:06:52;15.30;99.90
22842;DHT22;11587;47.064;15.444;2022-10-04T17:09:36;15.20;99.90
22842;DHT22;11587;47.064;15.444;2022-10-04T17:17:31;15.10;99.90
22842;DHT22;11587;47.064;15.444;2022-10-04T17:20:24;15.20;99.90
22842;DHT22;11587;47.064;15.444;2022-10-04T17:23:17;15.20;99.90
22842;DHT22;11587;47.064;15.444;2022-10-04T17:28:29;15.10;99.90
22842;DHT22;11587;47.064;15.444;2022-10-04T17:31:08;15.00;99.90
22842;DHT22;11587;47.064;15.444;2022-10-04T17:41:58;14.70;99.90
22842;DHT22;11587;47.064;15.444;2022-10-04T17:44:46;14.50;99.90
22842;DHT22;11587;47.064;15.444;2022-10-04T17:51:02;14.50;99.90
22842;DHT22;11587;47.064;15.444;2022-10-04T17:53:53;14.40;99.90
22842;DHT22;11587;47.064;15.444;2022-10-04T17:59:47;14.20;99.90
22842;DHT22;11587;47.064;15.444;2022-10-04T18:02:43;14.10;99.90
22842;DHT22;11587;47.064;15.444;2022-10-04T18:11:12;13.90;99.90
22842;DHT22;11587;47.064;15.444;2022-10-04T18:13:54;13.90;99.90
22842;DHT22;11587;47.064;15.444;2022-10-04T18:16:31;13.80;99.90
22842;DHT22;11587;47.064;15.444;2022-10-04T18:24:40;13.50;99.90
22842;DHT22;11587;47.064;15.444;2022-10-04T18:27:22;13.50;99.90
22842;DHT22;11587;47.064;15.444;2022-10-04T18:34:54;13.30;99.90
22842;DHT22;11587;47.064;15.444;2022-10-04T18:37:35;13.30;99.90
22842;DHT22;11587;47.064;15.444;2022-10-04T18:40:33;13.30;99.90
22842;DHT22;11587;47.064;15.444;2022-10-04T18:42:59;13.10;99.90
22842;DHT22;11587;47.064;15.444;2022-10-04T18:45:31;13.10;99.90
22842;DHT22;11587;47.064;15.444;2022-10-04T18:48:00;13.10;99.90
22842;DHT22;11587;47.064;15.444;2022-10-04T18:50:34;13.10;99.90
22842;DHT22;11587;47.064;15.444;2022-10-04T18:55:59;13.10;99.90
22842;DHT22;11587;47.064;15.444;2022-10-04T19:01:56;12.90;99.90
22842;DHT22;11587;47.064;15.444;2022-10-04T19:26:37;12.60;99.90
22842;DHT22;11587;47.064;15.444;2022-10-04T19:32:12;12.50;99.90
22842;DHT22;11587;47.064;15.444;2022-10-04T19:37:25;12.60;99.90
22842;DHT22;11587;47.064;15.444;2022-10-04T19:40:00;12.50;99.90
22842;DHT22;11587;47.064;15.444;2022-10-04T19:47:50;12.20;99.90
22842;DHT22;11587;47.064;15.444;2022-10-04T19:50:26;12.20;99.90
22842;DHT22;11587;47.064;15.444;2022-10-04T19:58:32;12.10;99.90
22842;DHT22;11587;47.064;15.444;2022-10-04T20:01:16;12.10;99.90
22842;DHT22;11587;47.064;15.444;2022-10-04T20:03:43;12.10;99.90
22842;DHT22;11587;47.064;15.444;2022-10-04T20:06:18;12.10;99.90
22842;DHT22;11587;47.064;15.444;2022-10-04T20:08:56;12.00;99.90
22842;DHT22;11587;47.064;15.444;2022-10-04T20:11:46;12.00;99.90
22842;DHT22;11587;47.064;15.444;2022-10-04T20:19:17;12.00;99.90
22842;DHT22;11587;47.064;15.444;2022-10-04T20:21:43;11.90;99.90
22842;DHT22;11587;47.064;15.444;2022-10-04T20:24:17;11.80;99.90
22842;DHT22;11587;47.064;15.444;2022-10-04T20:27:58;11.90;99.90
22842;DHT22;11587;47.064;15.444;2022-10-04T20:30:12;11.90;99.90
22842;DHT22;11587;47.064;15.444;2022-10-04T20:35:09;11.80;99.90
22842;DHT22;11587;47.064;15.444;2022-10-04T20:45:46;11.70;99.90
22842;DHT22;11587;47.064;15.444;2022-10-04T20:48:17;11.70;99.90
22842;DHT22;11587;47.064;15.444;2022-10-04T20:50:43;11.70;99.90
22842;DHT22;11587;47.064;15.444;2022-10-04T20:55:42;11.70;99.90
22842;DHT22;11587;47.064;15.444;2022-10-04T21:03:41;11.60;99.90
22842;DHT22;11587;47.064;15.444;2022-10-04T21:06:09;11.60;99.90
22842;DHT22;11587;47.064;15.444;2022-10-04T21:08:35;11.50;99.90
22842;DHT22;11587;47.064;15.444;2022-10-04T21:11:11;11.60;99.90
22842;DHT22;11587;47.064;15.444;2022-10-04T21:14:00;11.50;99.90
22842;DHT22;11587;47.064;15.444;2022-10-04T21:16:45;11.40;99.90
22842;DHT22;11587;47.064;15.444;2022-10-04T21:22:09;11.30;99.90
22842;DHT22;11587;47.064;15.444;2022-10-04T21:24:52;11.40;99.90
22842;DHT22;11587;47.064;15.444;2022-10-04T21:27:30;11.30;99.90
22842;DHT22;11587;47.064;15.444;2022-10-04T21:29:57;11.20;99.90
22842;DHT22;11587;47.064;15.444;2022-10-04T21:32:24;11.10;99.90
22842;DHT22;11587;47.064;15.444;2022-10-04T21:34:51;11.20;99.90
22842;DHT22;11587;47.064;15.444;2022-10-04T21:37:17;11.20;99.90
22842;DHT22;11587;47.064;15.444;2022-10-04T21:39:43;11.30;99.90
22842;DHT22;11587;47.064;15.444;2022-10-04T21:42:09;11.10;99.90
22842;DHT22;11587;47.064;15.444;2022-10-04T21:44:35;11.20;99.90
22842;DHT22;11587;47.064;15.444;2022-10-04T21:47:01;11.20;99.90
22842;DHT22;11587;47.064;15.444;2022-10-04T21:49:27;11.20;99.90
22842;DHT22;11587;47.064;15.444;2022-10-04T21:51:53;11.20;99.90
22842;DHT22;11587;47.064;15.444;2022-10-04T21:54:19;11.20;99.90
22842;DHT22;11587;47.064;15.444;2022-10-04T21:56:45;11.20;99.90
22842;DHT22;11587;47.064;15.444;2022-10-04T21:59:10;11.20;99.90
22842;DHT22;11587;47.064;15.444;2022-10-04T22:01:36;11.10;99.90
22842;DHT22;11587;47.064;15.444;2022-10-04T22:04:02;11.10;99.90
22842;DHT22;11587;47.064;15.444;2022-10-04T22:06:28;11.10;99.90
22842;DHT22;11587;47.064;15.444;2022-10-04T22:08:54;11.10;99.90
22842;DHT22;11587;47.064;15.444;2022-10-04T22:11:20;11.10;99.90
22842;DHT22;11587;47.064;15.444;2022-10-04T22:13:46;11.10;99.90
22842;DHT22;11587;47.064;15.444;2022-10-04T22:16:13;11.10;99.90
22842;DHT22;11587;47.064;15.444;2022-10-04T22:18:39;11.10;99.90
22842;DHT22;11587;47.064;15.444;2022-10-04T22:21:05;11.00;99.90
22842;DHT22;11587;47.064;15.444;2022-10-04T22:23:36;11.00;99.90
22842;DHT22;11587;47.064;15.444;2022-10-04T22:26:15;10.90;99.90
22842;DHT22;11587;47.064;15.444;2022-10-04T22:28:47;10.90;99.90
22842;DHT22;11587;47.064;15.444;2022-10-04T22:31:15;10.90;99.90
22842;DHT22;11587;47.064;15.444;2022-10-04T22:33:43;10.90;99.90
22842;DHT22;11587;47.064;15.444;2022-10-04T22:38:48;10.80;99.90
22842;DHT22;11587;47.064;15.444;2022-10-04T22:41:16;10.80;99.90
22842;DHT22;11587;47.064;15.444;2022-10-04T22:43:48;10.80;99.90
22842;DHT22;11587;47.064;15.444;2022-10-04T22:46:15;10.80;99.90
22842;DHT22;11587;47.064;15.444;2022-10-04T22:48:43;10.80;99.90
22842;DHT22;11587;47.064;15.444;2022-10-04T22:51:13;10.70;99.90
22842;DHT22;11587;47.064;15.444;2022-10-04T22:53:44;10.70;99.90
22842;DHT22;11587;47.064;15.444;2022-10-04T22:56:14;10.70;99.90
22842;DHT22;11587;47.064;15.444;2022-10-04T22:58:40;10.70;99.90
22842;DHT22;11587;47.064;15.444;2022-10-04T23:01:12;10.70;99.90
22842;DHT22;11587;47.064;15.444;2022-10-04T23:03:39;10.70;99.90
22842;DHT22;11587;47.064;15.444;2022-10-04T23:06:04;10.70;99.90
22842;DHT22;11587;47.064;15.444;2022-10-04T23:08:37;10.70;99.90
22842;DHT22;11587;47.064;15.444;2022-10-04T23:11:03;10.70;99.90
22842;DHT22;11587;47.064;15.444;2022-10-04T23:13:29;10.70;99.90
22842;DHT22;11587;47.064;15.444;2022-10-04T23:15:58;10.70;99.90
22842;DHT22;11587;47.064;15.444;2022-10-04T23:18:25;10.60;99.90
22842;DHT22;11587;47.064;15.444;2022-10-04T23:20:58;10.60;99.90
22842;DHT22;11587;47.064;15.444;2022-10-04T23:23:26;10.60;99.90
22842;DHT22;11587;47.064;15.444;2022-10-04T23:25:53;10.50;99.90
22842;DHT22;11587;47.064;15.444;2022-10-04T23:28:19;10.50;99.90
22842;DHT22;11587;47.064;15.444;2022-10-04T23:30:57;10.60;99.90
22842;DHT22;11587;47.064;15.444;2022-10-04T23:33:24;10.50;99.90
22842;DHT22;11587;47.064;15.444;2022-10-04T23:35:51;10.60;99.90
22842;DHT22;11587;47.064;15.444;2022-10-04T23:38:20;10.50;99.90
22842;DHT22;11587;47.064;15.444;2022-10-04T23:40:47;10.50;99.90
22842;DHT22;11587;47.064;15.444;2022-10-04T23:43:23;10.60;99.90
22842;DHT22;11587;47.064;15.444;2022-10-04T23:45:54;10.60;99.90
22842;DHT22;11587;47.064;15.444;2022-10-04T23:48:24;10.50;99.90
22842;DHT22;11587;47.064;15.444;2022-10-04T23:50:52;10.40;99.90
22842;DHT22;11587;47.064;15.444;2022-10-04T23:53:23;10.40;99.90
22842;DHT22;11587;47.064;15.444;2022-10-04T23:55:52;10.40;99.90
22842;DHT22;11587;47.064;15.444;2022-10-04T23:58:20;10.40;99.90
